Time;durP1;ratioP1;P1;durP2;ratioP2;P2;SDS_P1;SDS_P2;PMS_P1;PMS_P2;Temp;Humidity;BMP_temperature;BMP_pressure;BME280_temperature;BME280_humidity;BME280_pressure;Samples;Min_cycle;Max_cycle;Signal;HPM_P1;HPM_P2
2023/04/23 00:00:30;;;;;;;1.82;1.50;;;16.40;69.70;;;;;;949988;147;27421;-74
2023/04/23 00:02:57;;;;;;;1.70;1.60;;;16.40;69.70;;;;;;935669;149;27377;-75
2023/04/23 00:05:23;;;;;;;1.70;1.60;;;16.40;70.00;;;;;;936608;149;27394;-74
2023/04/23 00:07:50;;;;;;;2.65;1.62;;;16.40;70.00;;;;;;937796;150;27920;-74
2023/04/23 00:10:16;;;;;;;2.20;1.65;;;16.30;70.20;;;;;;942619;148;27358;-74
2023/04/23 00:12:43;;;;;;;1.60;1.50;;;16.30;70.40;;;;;;922076;150;27360;-73
2023/04/23 00:15:10;;;;;;;2.35;1.57;;;16.30;70.40;;;;;;938054;149;27263;-74
2023/04/23 00:17:36;;;;;;;1.52;1.40;;;16.30;70.30;;;;;;936202;149;27342;-74
2023/04/23 00:20:03;;;;;;;1.55;1.40;;;16.30;70.50;;;;;;937692;148;27360;-74
2023/04/23 00:22:29;;;;;;;1.57;1.47;;;16.20;70.70;;;;;;918118;150;27364;-74
2023/04/23 00:24:56;;;;;;;2.25;1.60;;;16.20;71.00;;;;;;938473;150;27462;-74
2023/04/23 00:27:23;;;;;;;3.55;1.70;;;16.20;71.10;;;;;;935363;149;27355;-74
2023/04/23 00:29:50;;;;;;;4.03;1.90;;;16.20;71.40;;;;;;944030;148;27382;-74
2023/04/23 00:32:16;;;;;;;1.95;1.80;;;16.20;71.40;;;;;;940255;148;27259;-74
2023/04/23 00:34:42;;;;;;;1.52;1.42;;;16.20;71.60;;;;;;945160;148;27451;-74
2023/04/23 00:37:09;;;;;;;3.27;1.50;;;16.20;71.60;;;;;;938411;150;27373;-74
2023/04/23 00:39:37;;;;;;;1.90;1.70;;;16.20;71.80;;;;;;944041;148;27286;-74
2023/04/23 00:42:09;;;;;;;3.98;1.92;;;16.10;71.80;;;;;;943593;148;27421;-74
2023/04/23 00:44:30;;;;;;;2.95;1.90;;;16.10;72.00;;;;;;942715;148;27306;-74
2023/04/23 00:46:55;;;;;;;2.60;1.70;;;16.20;72.10;;;;;;940424;149;27357;-74
2023/04/23 00:49:22;;;;;;;1.82;1.72;;;16.20;72.30;;;;;;941279;149;28427;-74
2023/04/23 00:51:49;;;;;;;2.10;1.87;;;16.10;72.50;;;;;;940652;149;27667;-74
2023/04/23 00:54:15;;;;;;;1.55;1.42;;;16.20;72.60;;;;;;944022;148;27776;-74
2023/04/23 00:56:42;;;;;;;1.70;1.60;;;16.10;72.60;;;;;;943631;148;27325;-74
2023/04/23 00:59:08;;;;;;;1.98;1.65;;;16.10;73.00;;;;;;923505;150;27386;-74
2023/04/23 01:01:35;;;;;;;2.47;2.17;;;16.10;72.80;;;;;;943051;148;27289;-74
2023/04/23 01:04:02;;;;;;;1.95;1.85;;;16.10;73.20;;;;;;926430;150;27366;-74
2023/04/23 01:06:30;;;;;;;1.80;1.70;;;16.10;73.10;;;;;;943162;148;27379;-74
2023/04/23 01:08:55;;;;;;;2.65;2.45;;;16.10;73.20;;;;;;943985;148;27407;-74
2023/04/23 01:11:21;;;;;;;1.85;1.60;;;16.10;73.40;;;;;;941706;149;27370;-74
2023/04/23 01:13:48;;;;;;;2.17;1.72;;;16.10;73.80;;;;;;944478;148;27337;-74
2023/04/23 01:16:14;;;;;;;2.00;1.90;;;16.00;73.90;;;;;;943029;149;27270;-74
2023/04/23 01:18:41;;;;;;;2.52;2.33;;;16.00;74.20;;;;;;942413;149;27369;-74
2023/04/23 01:21:08;;;;;;;2.67;1.90;;;16.00;74.20;;;;;;940951;149;27460;-74
2023/04/23 01:23:34;;;;;;;2.27;2.08;;;16.00;74.40;;;;;;941103;149;27326;-74
2023/04/23 01:26:01;;;;;;;2.00;1.90;;;15.90;74.30;;;;;;944182;148;27280;-74
2023/04/23 01:28:27;;;;;;;2.27;2.03;;;15.90;74.60;;;;;;943360;148;27298;-74
2023/04/23 01:30:54;;;;;;;2.72;2.45;;;15.90;75.10;;;;;;942038;148;27345;-74
2023/04/23 01:33:21;;;;;;;2.42;2.22;;;15.90;75.10;;;;;;946933;147;27379;-74
2023/04/23 01:35:48;;;;;;;2.62;2.40;;;15.80;75.10;;;;;;942193;148;27395;-74
2023/04/23 01:38:14;;;;;;;3.37;2.30;;;15.80;75.40;;;;;;939488;148;27320;-73
2023/04/23 01:40:40;;;;;;;2.62;2.42;;;15.80;75.70;;;;;;936103;148;27434;-74
2023/04/23 01:43:07;;;;;;;2.40;2.20;;;15.80;76.00;;;;;;935756;148;27333;-74
2023/04/23 01:45:34;;;;;;;4.85;2.60;;;15.80;76.20;;;;;;933192;149;27291;-74
2023/04/23 01:48:00;;;;;;;2.40;2.20;;;15.70;76.30;;;;;;927450;150;27327;-74
2023/04/23 01:50:28;;;;;;;2.90;2.60;;;15.70;76.70;;;;;;927259;150;27429;-74
2023/04/23 01:52:53;;;;;;;2.75;2.55;;;15.70;76.80;;;;;;927242;150;27339;-74
2023/04/23 01:55:20;;;;;;;2.67;2.47;;;15.70;77.10;;;;;;926522;150;27392;-74
2023/04/23 01:57:46;;;;;;;3.05;2.67;;;15.60;78.10;;;;;;926028;150;27307;-74
2023/04/23 02:00:13;;;;;;;2.42;2.22;;;15.60;77.60;;;;;;926782;150;27327;-74
2023/04/23 02:02:40;;;;;;;3.00;2.80;;;15.60;77.90;;;;;;926230;150;27534;-74
2023/04/23 02:05:12;;;;;;;2.77;2.58;;;15.60;78.10;;;;;;927839;150;27442;-74
2023/04/23 02:07:39;;;;;;;2.83;2.62;;;15.60;78.40;;;;;;914759;151;27418;-73
2023/04/23 02:10:06;;;;;;;2.77;2.55;;;15.60;78.50;;;;;;940142;149;27297;-74
2023/04/23 02:12:32;;;;;;;2.87;2.67;;;15.60;78.90;;;;;;937097;148;27254;-74
2023/04/23 02:14:59;;;;;;;2.85;2.40;;;15.50;79.00;;;;;;936245;148;27321;-74
2023/04/23 02:17:27;;;;;;;2.50;2.30;;;15.50;79.50;;;;;;936358;148;27345;-74
2023/04/23 02:19:54;;;;;;;3.10;2.90;;;15.50;79.60;;;;;;920224;151;27505;-74
2023/04/23 02:22:19;;;;;;;2.83;2.63;;;15.50;79.90;;;;;;926854;149;27248;-74
2023/04/23 02:24:46;;;;;;;2.87;2.67;;;15.50;80.20;;;;;;928428;150;27324;-79
2023/04/23 02:27:12;;;;;;;3.00;2.80;;;15.40;80.40;;;;;;926606;150;27658;-79
2023/04/23 02:29:38;;;;;;;3.00;2.80;;;15.50;80.80;;;;;;927347;150;27540;-79
2023/04/23 02:32:05;;;;;;;3.37;3.00;;;15.40;80.70;;;;;;926866;150;27314;-77
2023/04/23 02:34:32;;;;;;;3.02;2.83;;;15.40;81.20;;;;;;925677;150;27472;-77
2023/04/23 02:36:58;;;;;;;4.05;2.87;;;15.40;81.60;;;;;;922114;154;27435;-77
2023/04/23 02:39:25;;;;;;;3.27;2.98;;;15.40;81.80;;;;;;923336;152;27346;-77
2023/04/23 02:41:51;;;;;;;3.17;2.98;;;15.40;82.10;;;;;;922350;152;27446;-77
2023/04/23 02:44:18;;;;;;;3.15;2.95;;;15.40;82.50;;;;;;923062;154;27338;-77
2023/04/23 02:46:45;;;;;;;3.50;2.85;;;15.40;82.40;;;;;;922145;154;27443;-77
2023/04/23 02:49:11;;;;;;;3.47;2.67;;;15.40;83.00;;;;;;923130;154;27473;-77
2023/04/23 02:51:38;;;;;;;3.17;2.65;;;15.40;83.20;;;;;;922889;154;27378;-77
2023/04/23 02:54:04;;;;;;;3.30;3.00;;;15.40;83.50;;;;;;923422;154;27416;-77
2023/04/23 02:56:31;;;;;;;3.43;3.13;;;15.40;83.80;;;;;;936923;150;27371;-77
2023/04/23 02:58:57;;;;;;;3.17;2.87;;;15.40;84.30;;;;;;938930;149;27372;-77
2023/04/23 03:01:24;;;;;;;2.60;2.40;;;15.30;84.40;;;;;;925568;152;27375;-77
2023/04/23 03:03:51;;;;;;;3.08;2.40;;;15.30;84.40;;;;;;925001;152;27765;-77
2023/04/23 03:06:17;;;;;;;2.97;2.70;;;15.30;84.60;;;;;;940507;150;27294;-77
2023/04/23 03:08:44;;;;;;;3.00;2.80;;;15.30;85.00;;;;;;939861;149;27293;-77
2023/04/23 03:11:10;;;;;;;3.08;2.87;;;15.30;85.40;;;;;;940602;152;27395;-77
2023/04/23 03:13:37;;;;;;;4.77;2.97;;;15.30;85.80;;;;;;925918;154;27373;-77
2023/04/23 03:16:04;;;;;;;2.77;2.58;;;15.30;86.20;;;;;;927228;154;27275;-77
2023/04/23 03:18:30;;;;;;;2.80;2.60;;;15.30;86.40;;;;;;932176;152;27277;-77
2023/04/23 03:20:57;;;;;;;2.58;2.37;;;15.30;86.70;;;;;;941678;151;27374;-77
2023/04/23 03:23:23;;;;;;;3.83;2.62;;;15.20;86.80;;;;;;939354;152;27423;-77
2023/04/23 03:25:50;;;;;;;2.60;2.40;;;15.20;87.20;;;;;;939226;150;27346;-77
2023/04/23 03:28:17;;;;;;;3.35;2.60;;;15.20;87.40;;;;;;926153;152;27416;-77
2023/04/23 03:30:43;;;;;;;2.85;2.65;;;15.20;87.60;;;;;;939429;149;27371;-77
2023/04/23 03:33:10;;;;;;;3.13;2.43;;;15.20;87.80;;;;;;925180;154;27319;-77
2023/04/23 03:35:36;;;;;;;3.07;2.60;;;15.20;88.20;;;;;;932750;148;27401;-77
2023/04/23 03:38:03;;;;;;;2.90;2.70;;;15.20;88.70;;;;;;945196;147;27331;-77
2023/04/23 03:40:29;;;;;;;2.70;2.50;;;15.20;88.70;;;;;;940268;149;27423;-77
2023/04/23 03:42:56;;;;;;;2.50;2.30;;;15.20;88.90;;;;;;941033;149;27315;-77
2023/04/23 03:45:23;;;;;;;2.37;2.17;;;15.20;89.10;;;;;;925370;150;27504;-77
2023/04/23 03:47:49;;;;;;;2.70;2.50;;;15.20;89.20;;;;;;926756;150;27376;-77
2023/04/23 03:50:16;;;;;;;2.58;2.40;;;15.20;89.50;;;;;;941343;149;27338;-77
2023/04/23 03:52:42;;;;;;;2.63;2.43;;;15.20;89.80;;;;;;948964;148;27811;-77
2023/04/23 03:55:09;;;;;;;2.65;2.45;;;15.20;90.00;;;;;;939255;148;27297;-77
2023/04/23 03:57:36;;;;;;;2.40;2.20;;;15.10;90.00;;;;;;924882;149;27364;-77
2023/04/23 04:00:02;;;;;;;3.02;2.77;;;15.10;90.10;;;;;;925241;150;27337;-77
2023/04/23 04:02:29;;;;;;;3.10;2.15;;;15.10;90.30;;;;;;938515;149;27319;-77
2023/04/23 04:04:55;;;;;;;3.83;2.80;;;15.10;90.40;;;;;;924526;150;27399;-77
2023/04/23 04:07:22;;;;;;;3.52;2.85;;;15.10;90.50;;;;;;943784;148;27433;-77
2023/04/23 04:09:49;;;;;;;2.83;2.62;;;15.10;90.60;;;;;;932392;149;27406;-77
2023/04/23 04:12:15;;;;;;;2.83;2.62;;;15.10;90.60;;;;;;941159;147;27847;-77
2023/04/23 04:14:42;;;;;;;2.77;2.57;;;15.10;90.70;;;;;;943299;149;27311;-77
2023/04/23 04:17:08;;;;;;;3.03;2.60;;;15.10;90.80;;;;;;942698;149;27428;-77
2023/04/23 04:19:35;;;;;;;2.98;2.75;;;15.10;90.90;;;;;;944218;148;27671;-77
2023/04/23 04:22:02;;;;;;;3.20;2.47;;;15.10;91.10;;;;;;940924;150;27356;-77
2023/04/23 04:24:31;;;;;;;2.53;2.33;;;15.00;91.00;;;;;;948559;148;27301;-77
2023/04/23 04:26:55;;;;;;;2.90;2.70;;;15.00;91.00;;;;;;947153;148;27331;-77
2023/04/23 04:29:22;;;;;;;2.80;2.60;;;15.00;91.10;;;;;;938140;150;27315;-77
2023/04/23 04:31:48;;;;;;;2.93;2.73;;;15.00;91.10;;;;;;943523;148;27425;-77
2023/04/23 04:34:14;;;;;;;2.43;2.27;;;14.90;91.10;;;;;;939432;150;27298;-77
2023/04/23 04:36:41;;;;;;;2.70;2.50;;;14.90;91.30;;;;;;948627;147;27456;-77
2023/04/23 04:39:08;;;;;;;2.83;2.63;;;14.90;91.40;;;;;;943925;148;27314;-77
2023/04/23 04:41:34;;;;;;;2.83;2.63;;;14.80;91.60;;;;;;943447;148;27353;-77
2023/04/23 04:44:01;;;;;;;2.90;2.60;;;14.80;91.80;;;;;;943944;148;27450;-77
2023/04/23 04:46:30;;;;;;;2.90;2.70;;;14.80;92.00;;;;;;941203;149;27406;-77
2023/04/23 04:48:54;;;;;;;3.87;2.70;;;14.80;92.20;;;;;;943371;148;27262;-77
2023/04/23 04:51:21;;;;;;;3.40;2.87;;;14.80;92.30;;;;;;943826;148;27285;-77
2023/04/23 04:53:47;;;;;;;3.07;2.87;;;14.80;92.40;;;;;;944508;148;27356;-77
2023/04/23 04:56:14;;;;;;;2.53;2.33;;;14.80;92.50;;;;;;927993;150;27445;-77
2023/04/23 04:58:40;;;;;;;2.83;2.63;;;14.80;92.70;;;;;;927450;150;27285;-77
2023/04/23 05:01:08;;;;;;;2.80;2.60;;;14.80;92.70;;;;;;941386;149;27475;-77
2023/04/23 05:03:34;;;;;;;2.97;2.77;;;14.80;92.80;;;;;;943163;148;27349;-77
2023/04/23 05:06:00;;;;;;;3.45;2.80;;;14.80;92.90;;;;;;943869;148;27363;-77
2023/04/23 05:08:27;;;;;;;2.60;2.40;;;14.80;93.00;;;;;;941278;149;27362;-77
2023/04/23 05:10:53;;;;;;;2.57;2.43;;;14.90;92.90;;;;;;943490;148;27305;-77
2023/04/23 05:13:20;;;;;;;2.60;2.43;;;14.90;93.20;;;;;;930583;149;27325;-77
2023/04/23 05:15:46;;;;;;;2.80;2.43;;;14.90;93.20;;;;;;926236;150;27374;-77
2023/04/23 05:18:13;;;;;;;2.97;2.50;;;14.90;93.40;;;;;;941214;149;27659;-77
2023/04/23 05:20:40;;;;;;;3.80;2.10;;;15.00;93.50;;;;;;941862;149;27453;-77
2023/04/23 05:23:06;;;;;;;2.70;2.50;;;15.00;93.70;;;;;;941217;149;27334;-77
2023/04/23 05:25:34;;;;;;;2.57;2.37;;;15.00;93.90;;;;;;941795;149;27365;-77
2023/04/23 05:27:59;;;;;;;2.58;2.37;;;15.10;94.10;;;;;;941503;149;27364;-77
2023/04/23 05:30:26;;;;;;;2.30;2.20;;;15.10;94.20;;;;;;943263;148;27648;-77
2023/04/23 05:32:53;;;;;;;2.58;2.37;;;15.20;94.30;;;;;;931348;149;27348;-77
2023/04/23 05:35:19;;;;;;;3.00;2.70;;;15.30;94.40;;;;;;941816;149;27277;-77
2023/04/23 05:37:46;;;;;;;2.52;2.33;;;15.40;94.40;;;;;;951471;148;27476;-77
2023/04/23 05:40:12;;;;;;;2.22;2.08;;;15.50;94.40;;;;;;948311;148;27447;-77
2023/04/23 05:42:39;;;;;;;2.50;2.30;;;15.60;94.20;;;;;;939474;150;27406;-77
2023/04/23 05:45:06;;;;;;;3.70;2.37;;;15.60;93.90;;;;;;943655;148;27594;-77
2023/04/23 05:47:32;;;;;;;2.90;2.27;;;15.70;93.80;;;;;;943893;148;27309;-77
2023/04/23 05:50:00;;;;;;;2.40;2.30;;;15.80;93.60;;;;;;944379;148;27348;-77
2023/04/23 05:52:25;;;;;;;2.45;2.25;;;15.80;93.50;;;;;;927370;150;27387;-77
2023/04/23 05:54:52;;;;;;;2.20;2.10;;;15.80;93.50;;;;;;943771;148;27347;-77
2023/04/23 05:57:19;;;;;;;2.12;2.02;;;15.90;93.60;;;;;;943167;148;27314;-77
2023/04/23 05:59:45;;;;;;;2.50;2.22;;;16.00;93.60;;;;;;944396;148;27353;-77
2023/04/23 06:02:12;;;;;;;2.92;2.20;;;16.00;93.60;;;;;;939249;150;27301;-77
2023/04/23 06:04:38;;;;;;;2.37;2.27;;;16.10;93.70;;;;;;943539;148;27302;-77
2023/04/23 06:07:05;;;;;;;2.35;2.25;;;16.20;93.90;;;;;;944087;148;27669;-77
2023/04/23 06:09:31;;;;;;;3.20;2.35;;;16.30;93.90;;;;;;943785;148;27353;-77
2023/04/23 06:11:58;;;;;;;2.42;2.22;;;16.40;93.80;;;;;;943501;149;27360;-77
2023/04/23 06:14:25;;;;;;;2.30;2.10;;;16.60;95.30;;;;;;941076;147;27265;-77
2023/04/23 06:16:51;;;;;;;2.58;2.37;;;17.00;97.50;;;;;;925048;151;27840;-78
2023/04/23 06:19:18;;;;;;;2.30;2.15;;;17.50;98.70;;;;;;919616;150;27321;-77
2023/04/23 06:21:44;;;;;;;2.40;2.20;;;18.20;99.20;;;;;;939323;150;27366;-78
2023/04/23 06:24:11;;;;;;;2.45;2.25;;;19.00;98.70;;;;;;939557;150;27284;-78
2023/04/23 06:26:38;;;;;;;1.77;1.67;;;19.90;98.20;;;;;;943397;148;27302;-77
2023/04/23 06:29:04;;;;;;;2.02;1.92;;;20.80;96.90;;;;;;933662;149;27306;-77
2023/04/23 06:31:31;;;;;;;2.50;1.90;;;21.60;94.20;;;;;;925578;150;27369;-76
2023/04/23 06:33:57;;;;;;;1.90;1.80;;;22.50;92.10;;;;;;942737;148;27446;-76
2023/04/23 06:36:24;;;;;;;2.72;1.82;;;23.30;87.40;;;;;;939763;150;27364;-77
2023/04/23 06:38:51;;;;;;;1.80;1.67;;;24.00;84.30;;;;;;944051;149;27338;-77
2023/04/23 06:41:17;;;;;;;1.67;1.57;;;24.70;80.40;;;;;;939420;149;27367;-77
2023/04/23 06:43:44;;;;;;;3.35;1.67;;;25.30;76.60;;;;;;937252;150;27460;-77
2023/04/23 06:46:10;;;;;;;1.70;1.60;;;25.90;75.20;;;;;;928047;150;27332;-77
2023/04/23 06:48:37;;;;;;;1.65;1.55;;;26.50;71.10;;;;;;931052;150;27401;-76
2023/04/23 06:51:04;;;;;;;1.57;1.47;;;27.00;69.30;;;;;;938814;150;27409;-77
2023/04/23 06:53:30;;;;;;;1.42;1.32;;;27.50;67.60;;;;;;944139;148;27766;-77
2023/04/23 06:55:57;;;;;;;1.85;1.75;;;28.00;66.20;;;;;;943503;148;27426;-77
2023/04/23 06:58:29;;;;;;;2.12;1.47;;;28.40;64.60;;;;;;944146;148;27262;-77
2023/04/23 07:00:50;;;;;;;1.40;1.40;;;28.80;62.80;;;;;;943791;148;27453;-76
2023/04/23 07:03:16;;;;;;;1.50;1.40;;;29.10;60.40;;;;;;943301;148;27407;-76
2023/04/23 07:05:43;;;;;;;1.40;1.30;;;29.40;60.00;;;;;;943641;148;27446;-76
2023/04/23 07:08:10;;;;;;;1.45;1.30;;;29.70;59.60;;;;;;940429;149;27299;-77
2023/04/23 07:10:36;;;;;;;2.55;1.50;;;30.00;58.90;;;;;;941083;149;27425;-76
2023/04/23 07:13:03;;;;;;;1.40;1.30;;;30.30;58.10;;;;;;940568;149;27368;-76
2023/04/23 07:15:29;;;;;;;1.50;1.40;;;30.60;57.40;;;;;;941211;149;27331;-76
2023/04/23 07:17:56;;;;;;;1.85;1.60;;;30.80;55.80;;;;;;941708;149;27378;-76
2023/04/23 07:20:23;;;;;;;1.20;1.20;;;30.90;55.10;;;;;;940676;149;27454;-76
2023/04/23 07:22:49;;;;;;;1.20;1.10;;;31.00;54.80;;;;;;941148;149;27416;-77
2023/04/23 07:25:16;;;;;;;1.65;1.37;;;31.00;54.00;;;;;;941470;149;27383;-76
2023/04/23 07:27:42;;;;;;;2.27;1.52;;;30.90;52.70;;;;;;943424;148;27345;-77
2023/04/23 07:30:09;;;;;;;1.40;1.32;;;30.80;52.40;;;;;;938299;150;27375;-76
2023/04/23 07:32:36;;;;;;;1.50;1.40;;;30.70;52.90;;;;;;938393;150;27381;-76
2023/04/23 07:35:03;;;;;;;1.12;1.12;;;30.70;53.00;;;;;;937811;150;27412;-76
2023/04/23 07:37:29;;;;;;;1.22;1.22;;;30.70;52.60;;;;;;932839;149;27421;-76
2023/04/23 07:39:55;;;;;;;1.20;1.10;;;30.80;52.90;;;;;;926221;154;27400;-77
2023/04/23 07:42:22;;;;;;;1.65;1.55;;;30.90;52.10;;;;;;926285;154;27699;-76
2023/04/23 07:44:48;;;;;;;1.52;1.45;;;31.00;51.30;;;;;;945127;151;27442;-76
2023/04/23 07:47:15;;;;;;;2.47;1.60;;;31.00;51.30;;;;;;932172;151;27388;-77
2023/04/23 07:49:42;;;;;;;1.60;1.50;;;31.00;50.90;;;;;;928182;152;27330;-77
2023/04/23 07:52:08;;;;;;;1.42;1.32;;;30.80;50.10;;;;;;929843;153;27363;-77
2023/04/23 07:54:35;;;;;;;1.35;1.25;;;30.50;49.70;;;;;;929505;154;27741;-77
2023/04/23 07:57:02;;;;;;;2.35;1.70;;;30.10;49.30;;;;;;925950;154;27355;-77
2023/04/23 07:59:28;;;;;;;1.47;1.37;;;29.70;49.20;;;;;;926325;154;27327;-77
2023/04/23 08:01:55;;;;;;;1.77;1.67;;;29.20;49.20;;;;;;928135;152;27456;-76
2023/04/23 08:04:21;;;;;;;1.60;1.50;;;28.60;49.20;;;;;;930170;153;27379;-76
2023/04/23 08:06:48;;;;;;;2.33;2.00;;;28.30;50.00;;;;;;929941;153;27342;-76
2023/04/23 08:09:14;;;;;;;1.65;1.55;;;28.00;50.90;;;;;;940540;152;27354;-77
2023/04/23 08:11:41;;;;;;;2.00;1.80;;;27.90;50.90;;;;;;939911;151;27485;-77
2023/04/23 08:14:08;;;;;;;1.95;1.70;;;27.90;51.30;;;;;;935258;151;27353;-77
2023/04/23 08:16:34;;;;;;;1.98;1.60;;;28.10;52.30;;;;;;944770;151;27385;-77
2023/04/23 08:19:01;;;;;;;1.67;1.57;;;28.30;52.50;;;;;;943892;151;27332;-77
2023/04/23 08:21:28;;;;;;;2.00;1.90;;;28.50;52.30;;;;;;944375;151;27349;-77
2023/04/23 08:23:54;;;;;;;2.85;2.40;;;28.60;51.00;;;;;;922469;155;27293;-77
2023/04/23 08:26:21;;;;;;;2.47;2.27;;;28.60;49.80;;;;;;931002;151;27431;-76
2023/04/23 08:28:47;;;;;;;2.77;1.75;;;28.50;49.40;;;;;;927473;153;27370;-77
2023/04/23 08:31:15;;;;;;;3.05;2.30;;;28.30;49.70;;;;;;944589;149;27339;-76
2023/04/23 08:33:40;;;;;;;2.98;2.17;;;28.10;49.90;;;;;;941555;149;27451;-77
2023/04/23 08:36:08;;;;;;;1.98;1.87;;;28.10;50.10;;;;;;940914;151;27350;-77
2023/04/23 08:38:34;;;;;;;2.55;2.35;;;28.10;51.00;;;;;;935492;151;27490;-76
2023/04/23 08:41:00;;;;;;;2.47;2.22;;;28.40;51.70;;;;;;929697;152;27263;-77
2023/04/23 08:43:47;;;;;;;2.02;1.87;;;28.80;51.40;;;;;;929351;152;27418;-77
2023/04/23 08:46:14;;;;;;;1.77;1.67;;;29.40;51.40;;;;;;928993;152;27428;-77
2023/04/23 08:48:41;;;;;;;2.17;2.08;;;30.10;52.00;;;;;;922749;151;27376;-77
2023/04/23 08:51:10;;;;;;;1.85;1.75;;;30.80;52.10;;;;;;940639;151;27312;-78
2023/04/23 08:53:37;;;;;;;2.22;1.95;;;31.50;51.30;;;;;;942518;149;26342;-78
2023/04/23 08:56:03;;;;;;;1.72;1.62;;;32.20;50.00;;;;;;941338;149;26308;-78
2023/04/23 08:58:30;;;;;;;4.90;1.72;;;32.90;49.20;;;;;;925376;151;26286;-78
2023/04/23 09:00:56;;;;;;;1.50;1.40;;;33.30;48.20;;;;;;939391;151;26174;-78
2023/04/23 09:03:24;;;;;;;1.60;1.50;;;33.60;46.70;;;;;;925566;151;27440;-77
2023/04/23 09:05:50;;;;;;;1.42;1.32;;;33.60;45.40;;;;;;927515;152;27331;-77
2023/04/23 09:08:16;;;;;;;2.05;1.70;;;33.30;44.10;;;;;;929897;154;27384;-77
2023/04/23 09:10:43;;;;;;;1.40;1.40;;;32.80;43.40;;;;;;928384;153;27384;-77
2023/04/23 09:13:10;;;;;;;1.62;1.52;;;32.20;43.10;;;;;;930305;154;27402;-77
2023/04/23 09:15:38;;;;;;;1.70;1.60;;;31.60;43.30;;;;;;928165;153;27367;-77
2023/04/23 09:18:02;;;;;;;1.20;1.20;;;31.00;43.90;;;;;;926838;153;27457;-77
2023/04/23 09:20:29;;;;;;;1.57;1.47;;;30.60;45.00;;;;;;927267;153;27334;-77
2023/04/23 09:22:56;;;;;;;1.70;1.60;;;30.50;46.10;;;;;;941980;152;27251;-77
2023/04/23 09:25:22;;;;;;;1.90;1.17;;;30.60;46.40;;;;;;925747;151;27396;-77
2023/04/23 09:27:49;;;;;;;1.27;1.17;;;30.90;46.60;;;;;;928783;151;27398;-77
2023/04/23 09:30:15;;;;;;;1.45;1.35;;;31.20;46.50;;;;;;928719;152;27366;-77
2023/04/23 09:32:42;;;;;;;1.30;1.20;;;31.50;46.90;;;;;;927053;152;27383;-77
2023/04/23 09:35:09;;;;;;;1.22;1.20;;;31.90;46.00;;;;;;921494;152;27360;-77
2023/04/23 09:37:35;;;;;;;1.98;1.20;;;32.10;45.60;;;;;;941313;152;27392;-77
2023/04/23 09:40:03;;;;;;;0.95;0.95;;;32.30;45.40;;;;;;926683;153;27340;-77
2023/04/23 09:42:28;;;;;;;1.20;1.15;;;32.40;45.40;;;;;;929952;149;27438;-77
2023/04/23 09:45:07;;;;;;;1.40;1.30;;;32.50;44.50;;;;;;911516;153;27340;-77
2023/04/23 09:47:34;;;;;;;1.25;1.15;;;32.50;43.30;;;;;;895530;155;27426;-77
2023/04/23 09:50:00;;;;;;;2.25;1.30;;;32.20;42.90;;;;;;911886;154;27429;-77
2023/04/23 09:52:28;;;;;;;1.77;1.67;;;31.80;42.40;;;;;;910458;154;27426;-77
2023/04/23 09:54:53;;;;;;;1.45;1.35;;;31.40;42.40;;;;;;896466;155;27375;-77
2023/04/23 09:57:20;;;;;;;1.37;1.27;;;30.90;43.00;;;;;;910789;154;27503;-77
2023/04/23 09:59:47;;;;;;;1.75;1.27;;;30.40;43.50;;;;;;912618;154;27444;-77
2023/04/23 10:02:13;;;;;;;1.92;1.50;;;30.10;43.70;;;;;;912511;154;27401;-77
2023/04/23 10:04:40;;;;;;;2.12;1.60;;;29.80;43.70;;;;;;912584;154;27402;-77
2023/04/23 10:07:07;;;;;;;1.77;1.67;;;29.50;43.70;;;;;;912742;154;27424;-77
2023/04/23 10:09:33;;;;;;;1.80;1.70;;;29.20;43.90;;;;;;912520;154;27584;-77
2023/04/23 10:12:01;;;;;;;2.35;1.45;;;28.80;44.00;;;;;;908602;154;27384;-77
2023/04/23 10:14:26;;;;;;;1.20;1.10;;;28.60;44.10;;;;;;905256;157;27397;-77
2023/04/23 10:16:53;;;;;;;4.15;1.50;;;28.30;44.40;;;;;;908740;155;27420;-77
2023/04/23 10:19:21;;;;;;;1.22;1.15;;;28.10;44.90;;;;;;906895;155;27422;-77
2023/04/23 10:21:46;;;;;;;1.92;1.70;;;27.90;44.10;;;;;;908183;155;27503;-77
2023/04/23 10:24:12;;;;;;;3.85;3.55;;;27.70;44.40;;;;;;906981;155;27449;-76
2023/04/23 10:26:39;;;;;;;2.52;2.33;;;27.60;44.40;;;;;;907111;157;27459;-77
2023/04/23 10:29:06;;;;;;;2.10;2.00;;;27.40;44.30;;;;;;910038;155;27473;-76
2023/04/23 10:31:32;;;;;;;1.65;1.50;;;27.30;44.50;;;;;;930050;149;27350;-76
2023/04/23 10:34:00;;;;;;;1.25;1.15;;;27.20;44.50;;;;;;932253;149;27391;-76
2023/04/23 10:36:26;;;;;;;1.65;1.55;;;27.00;44.60;;;;;;933491;149;27392;-76
2023/04/23 10:38:55;;;;;;;1.47;1.37;;;26.90;44.70;;;;;;932712;149;27438;-76
2023/04/23 10:41:19;;;;;;;0.90;0.90;;;26.80;44.80;;;;;;927696;150;27405;-76
2023/04/23 10:43:45;;;;;;;1.42;1.32;;;26.60;44.40;;;;;;926465;150;27378;-76
2023/04/23 10:46:28;;;;;;;1.72;1.17;;;26.40;44.30;;;;;;925757;150;27876;-76
2023/04/23 10:49:08;;;;;;;1.50;1.40;;;26.20;44.40;;;;;;926578;150;27374;-76
2023/04/23 10:51:35;;;;;;;3.47;1.57;;;26.00;44.60;;;;;;942764;148;27341;-76
2023/04/23 10:54:04;;;;;;;1.55;1.42;;;25.80;44.90;;;;;;943462;148;27248;-76
2023/04/23 10:56:31;;;;;;;1.15;1.05;;;25.60;45.30;;;;;;926558;150;27438;-76
2023/04/23 10:58:57;;;;;;;1.55;1.12;;;25.40;45.50;;;;;;941532;149;27366;-76
2023/04/23 11:01:30;;;;;;;1.75;1.10;;;25.30;45.90;;;;;;941451;149;27354;-76
2023/04/23 11:03:57;;;;;;;0.93;0.93;;;25.20;46.20;;;;;;941674;149;27351;-76
2023/04/23 11:06:48;;;;;;;1.30;1.07;;;25.20;46.50;;;;;;941817;149;27642;-77
2023/04/23 11:09:43;;;;;;;1.10;1.00;;;25.20;46.70;;;;;;941873;149;27359;-76
2023/04/23 11:12:24;;;;;;;2.75;1.05;;;25.20;46.90;;;;;;940924;149;27423;-76
2023/04/23 11:14:50;;;;;;;1.12;1.07;;;25.30;47.00;;;;;;942049;149;27435;-76
2023/04/23 11:17:32;;;;;;;1.00;1.00;;;25.30;46.50;;;;;;940647;149;27350;-76
2023/04/23 11:20:09;;;;;;;1.10;1.10;;;25.40;46.20;;;;;;943536;149;27335;-76
2023/04/23 11:22:34;;;;;;;1.30;1.20;;;25.40;46.20;;;;;;919499;152;27410;-76
2023/04/23 11:25:00;;;;;;;1.40;1.30;;;25.40;46.60;;;;;;948171;147;27343;-76
2023/04/23 11:27:27;;;;;;;0.95;0.95;;;25.50;46.60;;;;;;920270;151;27428;-76
2023/04/23 11:29:53;;;;;;;1.00;1.00;;;25.50;46.70;;;;;;937606;150;27417;-76
2023/04/23 11:32:20;;;;;;;1.22;1.12;;;25.50;46.70;;;;;;937615;150;27287;-76
2023/04/23 11:34:47;;;;;;;1.00;1.00;;;25.60;46.60;;;;;;937883;150;27444;-76
2023/04/23 11:37:14;;;;;;;0.85;0.85;;;25.70;46.60;;;;;;938371;150;27351;-78
2023/04/23 11:39:40;;;;;;;1.50;0.98;;;25.70;46.60;;;;;;938194;150;27326;-78
2023/04/23 11:42:07;;;;;;;0.88;0.88;;;25.80;46.30;;;;;;943342;148;27290;-78
2023/04/23 11:44:33;;;;;;;1.20;1.10;;;25.80;45.60;;;;;;942734;148;27298;-78
2023/04/23 11:47:00;;;;;;;2.00;1.35;;;25.90;45.40;;;;;;918447;150;27458;-78
2023/04/23 11:49:26;;;;;;;1.82;1.10;;;25.90;45.20;;;;;;919396;150;27335;-78
2023/04/23 11:51:53;;;;;;;1.55;1.32;;;25.90;44.80;;;;;;936832;148;27911;-78
2023/04/23 11:54:19;;;;;;;2.12;0.78;;;25.90;44.60;;;;;;936545;149;27416;-78
2023/04/23 11:56:46;;;;;;;1.15;1.05;;;25.90;44.60;;;;;;938895;150;27374;-78
2023/04/23 11:59:12;;;;;;;0.95;0.95;;;25.80;44.70;;;;;;940371;148;27363;-78
2023/04/23 12:01:40;;;;;;;0.78;0.78;;;25.80;44.90;;;;;;937480;148;27339;-77
2023/04/23 12:04:21;;;;;;;1.32;1.00;;;25.80;45.00;;;;;;936416;148;27384;-78
2023/04/23 12:06:47;;;;;;;0.70;0.70;;;25.80;43.90;;;;;;938676;149;27280;-78
2023/04/23 12:09:14;;;;;;;1.20;1.10;;;25.80;44.10;;;;;;917239;150;27421;-78
2023/04/23 12:11:40;;;;;;;1.15;1.10;;;25.80;44.00;;;;;;924110;150;27357;-78
2023/04/23 12:14:07;;;;;;;1.15;0.95;;;25.80;43.80;;;;;;939501;150;27326;-78
2023/04/23 12:16:34;;;;;;;1.10;1.00;;;25.80;44.00;;;;;;940638;150;27306;-78
2023/04/23 12:19:00;;;;;;;1.05;1.05;;;25.80;44.00;;;;;;939247;150;27366;-78
2023/04/23 12:21:29;;;;;;;2.37;1.30;;;25.80;43.90;;;;;;933332;149;27350;-78
2023/04/23 12:23:57;;;;;;;1.27;1.17;;;25.80;44.00;;;;;;938023;150;27406;-78
2023/04/23 12:26:23;;;;;;;1.00;0.95;;;25.90;43.90;;;;;;935187;149;27440;-78
2023/04/23 12:28:52;;;;;;;1.30;1.20;;;25.90;44.00;;;;;;936218;149;27444;-78
2023/04/23 12:31:19;;;;;;;1.42;1.12;;;26.00;44.30;;;;;;923703;150;27508;-78
2023/04/23 12:33:45;;;;;;;1.30;1.00;;;26.00;44.30;;;;;;936517;148;27345;-78
2023/04/23 12:36:12;;;;;;;0.95;0.95;;;26.10;44.10;;;;;;936912;148;27332;-78
2023/04/23 12:38:38;;;;;;;0.88;0.88;;;26.10;44.10;;;;;;937078;148;27335;-78
2023/04/23 12:41:05;;;;;;;1.00;1.00;;;26.10;43.40;;;;;;937514;148;27488;-77
2023/04/23 12:43:31;;;;;;;1.98;1.02;;;26.10;43.10;;;;;;936345;148;27737;-78
2023/04/23 12:45:58;;;;;;;1.47;1.22;;;26.10;43.00;;;;;;932171;149;27268;-78